Chili, New Mexico
Current Conditions -  °F | °C
As of 7:55 PM on Tuesday 25 Nov 2014 (Local Time) from KLAM Reporting Station
Clear Clear  
Wind Chill: 30°   Ceiling: Unl
Heat Index: 34°   Visibility: 10mi
Dew Point:   Wind: 5mph
Humidity: 32%   Direction: 110°ESE
Pressure: 30.26"   Gusts: NA
Location:  36.0385°N, 106.224°W
Report Text: KLAM 260255Z AUTO 11004KT 10SM CLR 01/M14 A3026 RMK AO2 T00101141
Loading
Personal Weather Stations






























Interactive Weather Map New forecast layout! Learn more

10-Day Weather Forecast

Advertisements
Track Severe Weather on mobile